Time;durP1;ratioP1;P1;durP2;ratioP2;P2;SDS_P1;SDS_P2;PMS_P1;PMS_P2;Temp;Humidity;BMP_temperature;BMP_pressure;BME280_temperature;BME280_humidity;BME280_pressure;Samples;Min_cycle;Max_cycle;Signal;HPM_P1;HPM_P2
2022/03/09 00:01:28;;;;;;;9.30;5.70;;;3.60;51.80;;;;;;6267848;22;20024;-83
2022/03/09 00:03:54;;;;;;;8.57;5.88;;;3.60;51.80;;;;;;6296567;22;20060;-82
2022/03/09 00:06:20;;;;;;;9.45;5.93;;;3.60;51.90;;;;;;6269910;22;20015;-83
2022/03/09 00:08:45;;;;;;;8.63;5.97;;;3.60;51.90;;;;;;6297827;22;20020;-82
2022/03/09 00:11:11;;;;;;;8.82;5.82;;;3.60;51.80;;;;;;6269768;22;20012;-82
2022/03/09 00:13:36;;;;;;;9.23;6.15;;;3.60;51.90;;;;;;6269178;22;20020;-83
2022/03/09 00:16:02;;;;;;;9.68;5.50;;;3.60;52.00;;;;;;6296421;22;20079;-83
2022/03/09 00:18:28;;;;;;;9.63;5.50;;;3.60;51.90;;;;;;6270722;22;20020;-82
2022/03/09 00:20:53;;;;;;;9.32;6.28;;;3.60;51.90;;;;;;6295442;22;20026;-82
2022/03/09 00:23:19;;;;;;;9.17;6.33;;;3.60;51.90;;;;;;6264970;22;20016;-83
2022/03/09 00:25:45;;;;;;;9.50;6.00;;;3.60;52.00;;;;;;6272526;22;20019;-82
2022/03/09 00:28:10;;;;;;;9.18;5.80;;;3.60;52.00;;;;;;6302723;22;20015;-82
2022/03/09 00:30:36;;;;;;;14.40;6.97;;;3.60;52.00;;;;;;6302027;22;20011;-82
2022/03/09 00:33:01;;;;;;;10.45;6.03;;;3.60;52.20;;;;;;6275075;22;20046;-82
2022/03/09 00:35:27;;;;;;;10.15;6.03;;;3.60;52.20;;;;;;6299782;22;20011;-82
2022/03/09 00:37:53;;;;;;;9.38;5.95;;;3.50;52.20;;;;;;6298898;22;20020;-82
2022/03/09 00:40:19;;;;;;;9.50;6.10;;;3.50;52.30;;;;;;6265759;22;20018;-83
2022/03/09 00:42:44;;;;;;;11.93;6.10;;;3.50;52.30;;;;;;6279717;22;20028;-82
2022/03/09 00:45:11;;;;;;;11.38;6.22;;;3.50;52.20;;;;;;6279037;22;20011;-83
2022/03/09 00:47:36;;;;;;;11.00;6.27;;;3.50;52.00;;;;;;6279507;22;20016;-83
2022/03/09 00:50:03;;;;;;;8.88;5.97;;;3.50;51.90;;;;;;6279113;22;20015;-83
2022/03/09 00:52:30;;;;;;;9.38;5.93;;;3.40;51.80;;;;;;6278824;22;20466;-83
2022/03/09 00:54:56;;;;;;;10.25;5.82;;;3.50;51.80;;;;;;6279150;22;20015;-83
2022/03/09 00:57:21;;;;;;;9.63;6.10;;;3.50;51.70;;;;;;6251680;22;20025;-83
2022/03/09 00:59:47;;;;;;;11.18;7.43;;;3.50;51.70;;;;;;6278548;22;20490;-82
2022/03/09 01:02:13;;;;;;;8.35;6.32;;;3.50;52.10;;;;;;6251462;22;20118;-83
2022/03/09 01:04:39;;;;;;;12.32;6.15;;;3.50;51.80;;;;;;6251616;22;20016;-82
2022/03/09 01:07:05;;;;;;;9.80;6.63;;;3.50;51.80;;;;;;6251428;22;20339;-83
2022/03/09 01:09:31;;;;;;;10.88;5.93;;;3.50;51.70;;;;;;6278291;22;20383;-83
2022/03/09 01:11:57;;;;;;;11.02;6.78;;;3.50;51.80;;;;;;6251404;22;20066;-83
2022/03/09 01:14:23;;;;;;;9.50;6.55;;;3.50;51.60;;;;;;6250572;22;20020;-82
2022/03/09 01:16:49;;;;;;;10.07;6.90;;;3.50;51.60;;;;;;6278823;22;20008;-82
2022/03/09 01:19:15;;;;;;;8.03;5.40;;;3.50;51.60;;;;;;6251235;22;20317;-83
2022/03/09 01:21:40;;;;;;;12.40;6.80;;;3.50;51.80;;;;;;6251091;22;20026;-83
2022/03/09 01:24:06;;;;;;;11.63;6.97;;;3.50;51.90;;;;;;6278283;22;20332;-83
2022/03/09 01:26:33;;;;;;;9.25;5.97;;;3.50;51.90;;;;;;6278600;22;20066;-83
2022/03/09 01:28:59;;;;;;;9.30;6.20;;;3.60;51.90;;;;;;6278889;22;20321;-83
2022/03/09 01:31:24;;;;;;;9.67;6.53;;;3.60;52.00;;;;;;6250883;22;20019;-83
2022/03/09 01:33:50;;;;;;;11.10;7.07;;;3.60;52.30;;;;;;6279397;22;20027;-84
2022/03/09 01:36:16;;;;;;;10.18;6.60;;;3.60;52.40;;;;;;6279178;22;20046;-83
2022/03/09 01:38:42;;;;;;;10.23;7.60;;;3.60;52.10;;;;;;6279849;22;20040;-83
2022/03/09 01:41:07;;;;;;;9.20;6.80;;;3.60;51.80;;;;;;6250835;22;20016;-83
2022/03/09 01:43:33;;;;;;;11.63;8.00;;;3.70;51.80;;;;;;6278796;22;20081;-83
2022/03/09 01:45:59;;;;;;;11.82;7.30;;;3.60;51.60;;;;;;6224638;22;20047;-82
2022/03/09 01:48:24;;;;;;;9.48;6.90;;;3.60;51.60;;;;;;6278712;22;20020;-83
2022/03/09 01:50:50;;;;;;;10.73;7.18;;;3.60;51.50;;;;;;6278301;22;20007;-83
2022/03/09 01:53:18;;;;;;;12.05;6.75;;;3.60;51.60;;;;;;6279191;22;20095;-83
2022/03/09 01:55:44;;;;;;;13.35;7.53;;;3.50;51.50;;;;;;6279105;22;20039;-82
2022/03/09 01:58:10;;;;;;;10.23;7.10;;;3.50;51.40;;;;;;6278616;22;20093;-83
2022/03/09 02:00:35;;;;;;;10.80;7.53;;;3.50;51.30;;;;;;6250387;22;20023;-83
2022/03/09 02:03:01;;;;;;;11.07;7.97;;;3.50;51.30;;;;;;6250935;22;20012;-83
2022/03/09 02:05:27;;;;;;;10.83;7.80;;;3.50;51.40;;;;;;6278078;22;20023;-83
2022/03/09 02:10:38;;;;;;;11.37;6.20;;;3.40;51.60;;;;;;6250271;22;20062;-82
2022/03/09 02:13:03;;;;;;;11.47;7.50;;;3.40;51.50;;;;;;6250161;22;20026;-83
2022/03/09 02:15:31;;;;;;;11.13;7.90;;;3.40;51.40;;;;;;6250645;22;20327;-82
2022/03/09 02:17:59;;;;;;;12.70;7.80;;;3.30;51.50;;;;;;6277877;22;20085;-82
2022/03/09 02:20:25;;;;;;;11.37;7.17;;;3.30;51.50;;;;;;6250696;22;20016;-82
2022/03/09 02:22:53;;;;;;;14.23;8.60;;;3.30;51.60;;;;;;6277838;22;20015;-83
2022/03/09 02:25:20;;;;;;;12.53;7.13;;;3.30;51.70;;;;;;6280538;22;20024;-82
2022/03/09 02:27:46;;;;;;;11.30;7.57;;;3.30;51.80;;;;;;6253771;22;20026;-82
2022/03/09 02:30:15;;;;;;;12.33;7.90;;;3.20;51.80;;;;;;6250362;22;20016;-82
2022/03/09 02:32:45;;;;;;;12.33;7.77;;;3.20;51.90;;;;;;6250167;22;20023;-82
2022/03/09 02:35:12;;;;;;;12.57;7.20;;;3.20;52.30;;;;;;6278218;22;20011;-82
2022/03/09 02:37:39;;;;;;;14.60;8.03;;;3.10;52.00;;;;;;6284973;22;20021;-83
2022/03/09 02:40:09;;;;;;;11.87;7.80;;;3.10;52.10;;;;;;6287939;22;20022;-83
2022/03/09 02:42:35;;;;;;;14.60;7.83;;;3.10;52.10;;;;;;6258682;22;20024;-83
2022/03/09 02:45:03;;;;;;;10.20;7.10;;;3.00;52.10;;;;;;6277563;22;20026;-83
2022/03/09 02:47:28;;;;;;;11.17;7.33;;;3.00;52.10;;;;;;6277227;22;20038;-82
2022/03/09 02:49:54;;;;;;;12.23;7.37;;;3.00;52.30;;;;;;6276971;22;20016;-83
2022/03/09 02:52:19;;;;;;;10.20;7.63;;;2.90;52.40;;;;;;6277224;22;20026;-82
2022/03/09 02:54:45;;;;;;;10.73;6.90;;;2.90;52.40;;;;;;6250515;22;20062;-82
2022/03/09 02:57:11;;;;;;;10.87;6.73;;;2.90;52.50;;;;;;6277318;22;20016;-83
2022/03/09 02:59:37;;;;;;;14.93;7.80;;;2.90;52.80;;;;;;6277643;22;20023;-83
2022/03/09 03:02:03;;;;;;;12.60;6.87;;;2.90;53.10;;;;;;6277467;22;20328;-83
2022/03/09 03:04:29;;;;;;;11.13;7.63;;;2.90;53.30;;;;;;6277606;22;20019;-83
2022/03/09 03:06:54;;;;;;;11.40;7.60;;;2.80;53.10;;;;;;6277311;22;20027;-83
2022/03/09 03:09:20;;;;;;;11.67;6.90;;;2.90;53.10;;;;;;6277546;22;20086;-82
2022/03/09 03:11:46;;;;;;;10.43;7.57;;;2.90;53.10;;;;;;6249715;22;20047;-82
2022/03/09 03:14:11;;;;;;;10.07;6.73;;;2.90;53.40;;;;;;6250801;22;20380;-82
2022/03/09 03:16:37;;;;;;;10.00;6.87;;;2.90;53.60;;;;;;6250195;22;20016;-82
2022/03/09 03:19:03;;;;;;;11.80;7.77;;;2.90;54.00;;;;;;6277220;22;20020;-83
2022/03/09 03:21:29;;;;;;;13.53;7.47;;;2.90;54.20;;;;;;6277383;22;20451;-82
2022/03/09 03:23:55;;;;;;;10.55;7.05;;;2.90;54.30;;;;;;6276948;22;20011;-83
2022/03/09 03:26:20;;;;;;;10.53;7.20;;;2.90;54.30;;;;;;6277530;22;20058;-83
2022/03/09 03:28:46;;;;;;;10.23;6.97;;;2.90;54.40;;;;;;6277355;22;20436;-83
2022/03/09 03:31:12;;;;;;;11.50;7.47;;;2.90;54.50;;;;;;6277483;22;20012;-83
2022/03/09 03:33:37;;;;;;;10.47;7.37;;;2.90;54.20;;;;;;6277523;22;20043;-82
2022/03/09 03:36:03;;;;;;;10.30;7.50;;;2.90;53.80;;;;;;6249536;22;20051;-82
2022/03/09 03:38:29;;;;;;;13.20;7.53;;;2.90;53.60;;;;;;6277317;22;20302;-83
2022/03/09 03:40:54;;;;;;;13.33;7.80;;;2.90;53.40;;;;;;6249897;22;20100;-83
2022/03/09 03:43:20;;;;;;;14.77;7.93;;;2.90;53.20;;;;;;6277446;22;20096;-83
2022/03/09 03:45:46;;;;;;;9.77;6.50;;;2.80;52.90;;;;;;6277701;22;20048;-84
2022/03/09 03:48:11;;;;;;;11.33;7.40;;;2.80;53.20;;;;;;6277213;22;20022;-83
2022/03/09 03:50:37;;;;;;;11.53;7.20;;;2.80;53.60;;;;;;6277085;22;20058;-82
2022/03/09 03:53:03;;;;;;;11.20;7.40;;;2.80;53.40;;;;;;6277230;22;20015;-83
2022/03/09 03:55:30;;;;;;;11.67;7.27;;;2.70;53.60;;;;;;6277347;22;20076;-83
2022/03/09 03:57:55;;;;;;;10.87;7.37;;;2.70;53.50;;;;;;6250012;22;20011;-83
2022/03/09 04:00:23;;;;;;;12.37;7.77;;;2.70;53.30;;;;;;6250937;22;20016;-83
2022/03/09 04:02:50;;;;;;;11.73;7.80;;;2.70;53.20;;;;;;6278926;22;20012;-83
2022/03/09 04:05:15;;;;;;;13.10;7.90;;;2.70;53.20;;;;;;6251308;22;20064;-83
2022/03/09 04:07:41;;;;;;;11.80;7.17;;;2.60;53.20;;;;;;6251602;22;20012;-82
2022/03/09 04:10:07;;;;;;;14.80;8.00;;;2.60;53.20;;;;;;6278931;22;20020;-81
2022/03/09 04:12:32;;;;;;;10.90;6.93;;;2.60;53.20;;;;;;6251844;22;20058;-83
2022/03/09 04:14:58;;;;;;;10.67;7.17;;;2.50;53.30;;;;;;6278976;22;20016;-83
2022/03/09 04:17:24;;;;;;;11.37;7.23;;;2.50;53.30;;;;;;6279135;22;20317;-83
2022/03/09 04:19:49;;;;;;;11.00;7.43;;;2.50;53.30;;;;;;6279174;22;20019;-83
2022/03/09 04:22:15;;;;;;;13.50;7.73;;;2.50;53.40;;;;;;6279330;22;20019;-82
2022/03/09 04:24:41;;;;;;;13.10;8.30;;;2.40;53.30;;;;;;6251125;22;20023;-82
2022/03/09 04:27:06;;;;;;;11.60;7.73;;;2.40;53.40;;;;;;6278897;22;20407;-83
2022/03/09 04:29:32;;;;;;;14.93;7.57;;;2.40;53.40;;;;;;6278984;22;20087;-82
2022/03/09 04:31:58;;;;;;;12.80;7.73;;;2.30;53.40;;;;;;6251401;22;20110;-83
2022/03/09 04:34:23;;;;;;;11.17;7.30;;;2.40;53.60;;;;;;6251511;22;20023;-83
2022/03/09 04:36:49;;;;;;;10.07;6.43;;;2.30;53.70;;;;;;6251382;22;20023;-83
2022/03/09 04:39:15;;;;;;;13.67;7.30;;;2.30;53.80;;;;;;6278927;22;20030;-83
2022/03/09 04:41:41;;;;;;;10.53;6.93;;;2.30;54.00;;;;;;6250735;22;20046;-82
2022/03/09 04:44:06;;;;;;;11.53;7.43;;;2.30;53.90;;;;;;6278428;22;20047;-82
2022/03/09 04:46:32;;;;;;;12.53;7.80;;;2.30;54.00;;;;;;6278683;22;20020;-83
2022/03/09 04:48:59;;;;;;;11.33;6.87;;;2.30;54.50;;;;;;6278448;22;20015;-82
2022/03/09 04:51:25;;;;;;;12.97;7.77;;;2.40;54.00;;;;;;6278691;22;20023;-82
2022/03/09 04:53:51;;;;;;;12.23;8.07;;;2.30;54.00;;;;;;6278605;22;20043;-82
2022/03/09 04:56:17;;;;;;;11.30;7.53;;;2.30;53.90;;;;;;6251572;22;20097;-82
2022/03/09 04:58:43;;;;;;;11.33;6.93;;;2.40;53.90;;;;;;6278335;22;20015;-82
2022/03/09 05:01:09;;;;;;;11.53;7.27;;;2.40;53.90;;;;;;6251152;22;20099;-83
2022/03/09 05:03:34;;;;;;;10.80;6.87;;;2.30;53.80;;;;;;6251388;22;20443;-83
2022/03/09 05:06:04;;;;;;;13.67;6.90;;;2.30;53.80;;;;;;6250950;22;20015;-83
2022/03/09 05:08:30;;;;;;;11.50;8.13;;;2.30;53.70;;;;;;6278150;22;20050;-83
2022/03/09 05:10:56;;;;;;;11.97;8.10;;;2.30;53.70;;;;;;6277953;22;20313;-83
2022/03/09 05:13:22;;;;;;;14.87;8.73;;;2.20;53.70;;;;;;6278024;22;20092;-82
2022/03/09 05:15:48;;;;;;;11.83;7.43;;;2.20;53.60;;;;;;6251303;22;20016;-82
2022/03/09 05:18:14;;;;;;;13.57;8.20;;;2.20;53.60;;;;;;6278430;22;20015;-82
2022/03/09 05:20:39;;;;;;;10.47;7.00;;;2.20;53.50;;;;;;6250942;22;20023;-82
2022/03/09 05:23:05;;;;;;;12.73;7.57;;;2.20;53.40;;;;;;6278330;22;20042;-82
2022/03/09 05:25:31;;;;;;;10.27;7.27;;;2.20;53.40;;;;;;6277776;22;20051;-83
2022/03/09 05:27:59;;;;;;;12.07;7.50;;;2.20;53.40;;;;;;6278079;22;20444;-83
2022/03/09 05:30:25;;;;;;;12.90;7.37;;;2.20;53.50;;;;;;6277741;22;20277;-83
2022/03/09 05:32:51;;;;;;;10.93;7.07;;;2.10;53.50;;;;;;6251159;22;20080;-83
2022/03/09 05:35:16;;;;;;;13.07;8.43;;;2.10;53.60;;;;;;6278337;22;20023;-83
2022/03/09 05:37:43;;;;;;;10.67;7.37;;;2.10;53.60;;;;;;6250622;22;20022;-83
2022/03/09 05:40:09;;;;;;;10.73;7.43;;;2.10;53.60;;;;;;6250533;22;20022;-82
2022/03/09 05:42:35;;;;;;;11.40;7.43;;;2.10;53.70;;;;;;6278160;22;20051;-83
2022/03/09 05:45:02;;;;;;;11.17;7.60;;;2.00;53.70;;;;;;6277788;22;20096;-83
2022/03/09 05:47:28;;;;;;;10.47;7.10;;;2.00;53.70;;;;;;6278161;22;20020;-82
2022/03/09 05:49:53;;;;;;;13.03;7.63;;;2.00;53.80;;;;;;6278927;22;20057;-82
2022/03/09 05:52:19;;;;;;;13.30;7.70;;;2.00;53.90;;;;;;6278158;22;20026;-82
2022/03/09 05:54:45;;;;;;;11.20;7.53;;;2.00;53.90;;;;;;6278255;22;20034;-82
2022/03/09 05:57:21;;;;;;;12.37;7.77;;;2.00;53.90;;;;;;6278287;22;20050;-83
2022/03/09 05:59:48;;;;;;;14.67;7.63;;;1.90;54.00;;;;;;6250812;22;20018;-83
2022/03/09 06:02:14;;;;;;;10.83;7.63;;;1.90;54.20;;;;;;6250106;22;20090;-83
2022/03/09 06:04:39;;;;;;;10.10;7.03;;;1.90;54.20;;;;;;6277839;22;20050;-83
2022/03/09 06:07:05;;;;;;;11.60;7.30;;;1.90;54.30;;;;;;6251034;22;20030;-83
2022/03/09 06:09:31;;;;;;;13.03;7.97;;;1.90;54.30;;;;;;6278314;22;20014;-83
2022/03/09 06:11:57;;;;;;;11.07;7.00;;;1.90;54.30;;;;;;6250437;22;20027;-83
2022/03/09 06:14:23;;;;;;;11.23;6.77;;;1.90;54.50;;;;;;6225673;22;20062;-82
2022/03/09 06:16:49;;;;;;;12.00;7.57;;;1.90;54.70;;;;;;6251406;22;20039;-83
2022/03/09 06:19:16;;;;;;;9.10;6.67;;;1.90;55.00;;;;;;6279728;22;20343;-83
2022/03/09 06:21:42;;;;;;;12.73;8.00;;;1.90;55.40;;;;;;6279347;22;20012;-83
2022/03/09 06:24:08;;;;;;;11.27;7.03;;;1.90;55.50;;;;;;6251509;22;20012;-83
2022/03/09 06:26:34;;;;;;;10.17;6.87;;;1.90;55.30;;;;;;6250720;22;20343;-83
2022/03/09 06:29:00;;;;;;;9.43;7.43;;;1.90;55.20;;;;;;6278513;22;20026;-84
2022/03/09 06:31:25;;;;;;;10.57;6.93;;;1.90;55.20;;;;;;6277151;22;20027;-82
2022/03/09 06:33:51;;;;;;;10.70;7.40;;;1.90;55.20;;;;;;6278269;22;20062;-83
2022/03/09 06:36:17;;;;;;;11.07;7.37;;;1.90;55.10;;;;;;6250140;22;20042;-83
2022/03/09 06:38:43;;;;;;;13.00;8.20;;;1.90;55.10;;;;;;6277971;22;20012;-84
2022/03/09 06:41:09;;;;;;;10.70;7.57;;;1.80;55.20;;;;;;6250064;22;20343;-83
2022/03/09 06:43:34;;;;;;;11.73;7.20;;;1.80;55.10;;;;;;6277969;22;20022;-83
2022/03/09 06:46:00;;;;;;;12.20;8.73;;;1.80;55.10;;;;;;6278097;22;20015;-83
2022/03/09 06:48:26;;;;;;;11.53;7.13;;;1.80;55.00;;;;;;6277637;22;20012;-83
2022/03/09 06:50:52;;;;;;;12.13;7.10;;;1.80;55.10;;;;;;6277547;22;20069;-82
2022/03/09 06:53:17;;;;;;;12.80;7.77;;;1.80;55.00;;;;;;6249465;22;20062;-83
2022/03/09 06:55:43;;;;;;;13.73;7.97;;;1.80;55.00;;;;;;6250314;22;20019;-83
2022/03/09 06:58:08;;;;;;;12.03;6.90;;;1.80;55.00;;;;;;6254020;22;20015;-84
2022/03/09 07:00:36;;;;;;;13.30;7.27;;;1.80;54.90;;;;;;6259924;22;20102;-83
2022/03/09 07:03:05;;;;;;;11.97;7.63;;;1.90;54.80;;;;;;6287679;22;20019;-83
2022/03/09 07:05:31;;;;;;;13.47;7.47;;;1.90;54.80;;;;;;6250250;22;20304;-83
2022/03/09 07:07:57;;;;;;;11.37;6.80;;;1.90;54.80;;;;;;6277185;22;20047;-84
2022/03/09 07:10:23;;;;;;;11.27;7.20;;;2.00;54.70;;;;;;6277139;22;20023;-82
2022/03/09 07:12:49;;;;;;;12.40;7.73;;;2.00;54.70;;;;;;6277305;22;20066;-83
2022/03/09 07:15:15;;;;;;;12.93;7.37;;;2.10;54.60;;;;;;6250086;22;20460;-83
2022/03/09 07:17:43;;;;;;;12.33;6.80;;;2.10;54.60;;;;;;6249975;22;20011;-83
2022/03/09 07:20:09;;;;;;;11.63;7.17;;;2.10;54.60;;;;;;6250072;22;20030;-83
2022/03/09 07:22:35;;;;;;;12.83;7.60;;;2.20;54.50;;;;;;6249968;22;20049;-83
2022/03/09 07:25:00;;;;;;;10.00;7.13;;;2.30;54.40;;;;;;6249712;22;20023;-83
2022/03/09 07:27:26;;;;;;;13.50;8.53;;;2.30;54.40;;;;;;6277510;22;20015;-85
2022/03/09 07:29:52;;;;;;;12.80;8.33;;;2.40;54.50;;;;;;6277681;22;20351;-84
2022/03/09 07:32:17;;;;;;;11.73;8.00;;;2.40;54.30;;;;;;6250058;22;20336;-84
2022/03/09 07:34:43;;;;;;;11.77;7.53;;;2.60;54.20;;;;;;6277927;22;20011;-84
2022/03/09 07:37:09;;;;;;;13.37;7.40;;;2.70;54.00;;;;;;6279662;22;20015;-84
2022/03/09 07:39:35;;;;;;;11.57;7.70;;;2.80;53.80;;;;;;6279292;22;20054;-84
2022/03/09 07:42:01;;;;;;;11.57;6.77;;;2.90;53.60;;;;;;6279234;22;20011;-85
2022/03/09 07:44:27;;;;;;;12.40;6.77;;;3.00;53.40;;;;;;6278882;22;20023;-84
2022/03/09 07:46:53;;;;;;;12.57;6.90;;;3.10;53.10;;;;;;6252332;22;20351;-84
2022/03/09 07:49:19;;;;;;;11.20;6.80;;;3.30;52.80;;;;;;6279679;22;20008;-84
2022/03/09 07:51:46;;;;;;;9.67;7.00;;;3.40;52.80;;;;;;6226486;22;20065;-84
2022/03/09 07:54:12;;;;;;;10.48;6.65;;;3.40;52.50;;;;;;6279625;22;20050;-84
2022/03/09 07:56:38;;;;;;;9.80;6.80;;;3.60;52.40;;;;;;6279180;22;20015;-83
2022/03/09 07:59:05;;;;;;;12.73;7.50;;;3.70;52.20;;;;;;6226116;22;20023;-84
2022/03/09 08:01:31;;;;;;;10.57;7.07;;;3.80;52.00;;;;;;6279091;22;20440;-84
2022/03/09 08:03:57;;;;;;;10.80;6.90;;;3.90;51.90;;;;;;6279365;22;20022;-84
2022/03/09 08:06:22;;;;;;;10.63;7.43;;;4.00;51.60;;;;;;6279301;22;20016;-83
2022/03/09 08:08:48;;;;;;;10.43;7.90;;;4.10;51.60;;;;;;6279456;22;20050;-84
2022/03/09 08:11:14;;;;;;;11.30;7.15;;;4.30;51.70;;;;;;6279237;22;20410;-84
2022/03/09 08:13:39;;;;;;;11.45;6.53;;;4.40;51.00;;;;;;6251994;22;20444;-84
2022/03/09 08:16:06;;;;;;;11.70;7.53;;;4.50;50.90;;;;;;6251868;22;20030;-84
2022/03/09 08:18:31;;;;;;;10.95;7.32;;;4.80;51.20;;;;;;6252765;22;20039;-84
2022/03/09 08:20:57;;;;;;;11.70;7.28;;;4.80;50.40;;;;;;6279993;22;20489;-84
2022/03/09 08:23:23;;;;;;;12.43;7.10;;;5.00;50.30;;;;;;6252058;22;20054;-84
2022/03/09 08:25:49;;;;;;;12.68;7.55;;;5.10;49.90;;;;;;6252002;22;20022;-84
2022/03/09 08:28:16;;;;;;;10.50;6.80;;;5.30;49.40;;;;;;6279596;22;20027;-84
2022/03/09 08:30:42;;;;;;;11.10;7.25;;;5.50;49.40;;;;;;6279865;22;20016;-84
2022/03/09 08:33:08;;;;;;;11.23;7.13;;;5.70;49.30;;;;;;6252848;22;20016;-84
2022/03/09 08:35:34;;;;;;;12.10;7.75;;;5.90;48.90;;;;;;6252196;22;20011;-84
2022/03/09 08:37:59;;;;;;;9.55;6.68;;;6.10;47.80;;;;;;6252021;22;20426;-84
2022/03/09 08:40:25;;;;;;;12.88;7.13;;;6.20;47.20;;;;;;6252206;22;20068;-84
2022/03/09 08:42:51;;;;;;;11.68;7.03;;;6.40;46.80;;;;;;6279436;22;20038;-84
2022/03/09 08:45:16;;;;;;;10.60;7.15;;;6.60;46.70;;;;;;6279651;22;20379;-84
2022/03/09 08:47:42;;;;;;;12.00;7.80;;;6.80;45.80;;;;;;6279405;22;20340;-84
2022/03/09 08:50:09;;;;;;;10.55;7.10;;;7.00;45.70;;;;;;6279592;22;20435;-84
2022/03/09 08:52:35;;;;;;;11.40;6.55;;;7.20;44.70;;;;;;6279213;22;20045;-84
2022/03/09 08:55:00;;;;;;;10.10;7.55;;;7.30;44.00;;;;;;6279384;22;20035;-84
2022/03/09 08:57:26;;;;;;;10.30;6.97;;;7.50;44.00;;;;;;6251929;22;20343;-84
2022/03/09 08:59:52;;;;;;;10.48;6.57;;;7.60;43.80;;;;;;6279392;22;20046;-85
2022/03/09 09:02:17;;;;;;;9.65;7.82;;;7.70;43.30;;;;;;6279056;22;20099;-84
2022/03/09 09:04:43;;;;;;;9.20;6.43;;;7.80;43.10;;;;;;6279277;22;20043;-84
2022/03/09 09:07:09;;;;;;;11.45;7.95;;;7.90;43.30;;;;;;6279361;22;20083;-84
2022/03/09 09:09:34;;;;;;;11.93;7.15;;;8.10;42.80;;;;;;6278447;22;20012;-84
2022/03/09 09:12:01;;;;;;;11.07;7.30;;;8.20;42.30;;;;;;6278994;22;20053;-83
2022/03/09 09:14:28;;;;;;;11.38;7.13;;;8.30;42.30;;;;;;6279161;22;20015;-83
2022/03/09 09:16:55;;;;;;;10.57;7.25;;;8.40;42.00;;;;;;6278961;22;20043;-83
2022/03/09 09:19:20;;;;;;;10.25;7.40;;;8.50;41.40;;;;;;6278403;22;20448;-83
2022/03/09 09:21:46;;;;;;;12.93;7.40;;;8.60;41.70;;;;;;6251787;22;20031;-84
2022/03/09 09:24:13;;;;;;;10.80;7.13;;;8.70;42.20;;;;;;6277838;22;20026;-83
2022/03/09 09:26:39;;;;;;;10.65;7.03;;;8.80;41.80;;;;;;6278335;22;20119;-83
2022/03/09 09:29:04;;;;;;;11.32;7.65;;;9.00;42.00;;;;;;6251267;22;20055;-83
2022/03/09 09:31:30;;;;;;;10.25;7.43;;;9.10;41.20;;;;;;6278724;22;20023;-84
2022/03/09 09:33:56;;;;;;;13.15;7.80;;;9.20;40.50;;;;;;6251132;22;20097;-83
2022/03/09 09:36:22;;;;;;;9.60;6.80;;;9.40;40.70;;;;;;6251048;22;20046;-83
2022/03/09 09:38:48;;;;;;;9.38;6.95;;;9.50;39.70;;;;;;6251602;22;20023;-83
2022/03/09 09:41:18;;;;;;;9.65;6.95;;;9.70;39.60;;;;;;6250888;22;20073;-83
2022/03/09 09:43:44;;;;;;;9.10;6.97;;;9.90;39.20;;;;;;6278011;22;20016;-83
2022/03/09 09:46:15;;;;;;;10.13;7.20;;;10.00;39.60;;;;;;6250656;22;20024;-83
2022/03/09 09:48:42;;;;;;;10.68;7.00;;;10.20;38.70;;;;;;6277728;22;20051;-83
2022/03/09 09:51:09;;;;;;;9.85;6.82;;;10.30;38.10;;;;;;6277855;22;20019;-83
2022/03/09 09:53:35;;;;;;;10.18;7.50;;;10.40;37.60;;;;;;6250936;22;20094;-83
2022/03/09 09:56:03;;;;;;;10.48;7.10;;;10.50;37.70;;;;;;6277954;22;20054;-83
2022/03/09 09:58:30;;;;;;;10.10;7.32;;;10.60;37.70;;;;;;6278181;22;20022;-83
2022/03/09 10:00:56;;;;;;;9.82;6.85;;;10.60;37.30;;;;;;6278205;22;20023;-84
2022/03/09 10:03:21;;;;;;;11.23;6.95;;;10.70;37.40;;;;;;6225718;22;20020;-83
2022/03/09 10:05:47;;;;;;;9.80;7.20;;;10.80;37.00;;;;;;6250198;22;20016;-83
2022/03/09 10:08:16;;;;;;;9.93;7.88;;;10.90;36.70;;;;;;6278317;22;20047;-83
2022/03/09 10:11:00;;;;;;;10.15;7.85;;;10.80;36.20;;;;;;6250614;22;20027;-83
2022/03/09 10:13:30;;;;;;;11.65;8.10;;;10.90;36.00;;;;;;6250327;22;20030;-83
2022/03/09 10:16:21;;;;;;;8.93;6.63;;;11.00;36.60;;;;;;6278119;22;20011;-83
2022/03/09 10:18:54;;;;;;;11.50;8.27;;;11.10;36.40;;;;;;6250887;22;20375;-83
2022/03/09 10:21:28;;;;;;;10.43;7.25;;;11.20;36.20;;;;;;6250871;22;20073;-83
2022/03/09 10:24:01;;;;;;;10.73;8.45;;;11.20;36.40;;;;;;6250650;22;20043;-83
2022/03/09 10:26:43;;;;;;;12.00;7.90;;;11.30;36.10;;;;;;6277856;22;20016;-83
2022/03/09 10:29:18;;;;;;;11.15;8.15;;;11.30;35.90;;;;;;6250763;22;20019;-83
2022/03/09 10:31:49;;;;;;;10.25;7.35;;;11.30;35.70;;;;;;6250415;22;20328;-83
2022/03/09 10:34:24;;;;;;;9.60;7.28;;;11.30;36.00;;;;;;6278142;22;20023;-83
2022/03/09 10:36:58;;;;;;;10.02;7.10;;;11.30;35.70;;;;;;6277979;22;20023;-83
2022/03/09 10:39:28;;;;;;;11.02;7.63;;;11.40;35.50;;;;;;6278246;22;20012;-83
2022/03/09 10:41:54;;;;;;;10.25;7.57;;;11.30;35.40;;;;;;6276962;22;20505;-83
2022/03/09 10:44:19;;;;;;;14.77;8.63;;;11.50;35.50;;;;;;6250447;22;20057;-83
2022/03/09 10:46:48;;;;;;;8.98;7.65;;;11.30;35.80;;;;;;6277831;22;20020;-83
2022/03/09 10:49:19;;;;;;;10.50;7.70;;;11.40;36.10;;;;;;6277502;22;20404;-83
2022/03/09 10:51:50;;;;;;;10.77;7.70;;;11.50;36.00;;;;;;6250487;22;20015;-83
2022/03/09 10:54:32;;;;;;;11.88;8.60;;;11.50;35.90;;;;;;6278074;22;20025;-83
2022/03/09 10:57:11;;;;;;;8.60;6.72;;;11.60;35.40;;;;;;6277886;22;20016;-83
2022/03/09 10:59:51;;;;;;;9.73;8.35;;;11.60;35.30;;;;;;6250685;22;20098;-83
2022/03/09 11:02:20;;;;;;;9.32;7.47;;;11.60;35.80;;;;;;6250395;22;20016;-83
2022/03/09 11:05:09;;;;;;;11.57;8.25;;;11.60;35.50;;;;;;6249337;22;20023;-83
2022/03/09 11:07:39;;;;;;;10.07;7.57;;;11.60;35.70;;;;;;6278142;22;20012;-83
2022/03/09 11:10:09;;;;;;;11.88;8.25;;;11.50;35.70;;;;;;6277345;22;20007;-83
2022/03/09 11:12:39;;;;;;;10.55;8.10;;;11.60;35.40;;;;;;6250432;22;20019;-83
2022/03/09 11:15:06;;;;;;;10.93;8.50;;;11.50;34.90;;;;;;6250295;22;20054;-83
2022/03/09 11:17:33;;;;;;;10.05;7.78;;;11.60;35.30;;;;;;6277721;22;20069;-83
2022/03/09 11:19:59;;;;;;;10.82;8.43;;;11.60;36.00;;;;;;6264034;22;20016;-83
2022/03/09 11:22:25;;;;;;;11.48;8.50;;;11.60;35.70;;;;;;6283970;22;20023;-83
2022/03/09 11:24:53;;;;;;;10.80;7.88;;;11.60;35.30;;;;;;6277373;22;20008;-83
2022/03/09 11:27:19;;;;;;;11.68;8.05;;;11.60;34.60;;;;;;6250254;22;20059;-83
2022/03/09 11:29:45;;;;;;;12.30;8.60;;;11.80;34.50;;;;;;6224401;22;20016;-83
2022/03/09 11:32:14;;;;;;;11.73;8.52;;;11.60;34.70;;;;;;6277701;22;20023;-84
2022/03/09 11:34:47;;;;;;;11.73;8.60;;;11.70;34.90;;;;;;6250334;22;20020;-83
2022/03/09 11:37:33;;;;;;;10.43;7.60;;;11.70;36.00;;;;;;6277746;22;20012;-84
2022/03/09 11:40:10;;;;;;;13.13;8.65;;;11.90;35.80;;;;;;6250400;22;20507;-82
2022/03/09 11:42:44;;;;;;;11.38;8.18;;;11.80;35.30;;;;;;6278051;22;20020;-82
2022/03/09 11:45:22;;;;;;;12.32;8.35;;;11.70;35.00;;;;;;6278212;22;20020;-83
2022/03/09 11:48:00;;;;;;;11.50;8.07;;;11.70;34.60;;;;;;6278074;22;20020;-83
2022/03/09 11:50:27;;;;;;;10.57;8.43;;;11.70;35.00;;;;;;6251597;22;20061;-83
2022/03/09 11:53:07;;;;;;;13.27;9.00;;;11.90;35.10;;;;;;6250481;22;20454;-83
2022/03/09 11:55:35;;;;;;;11.75;8.40;;;11.80;34.70;;;;;;6250486;22;20016;-83
2022/03/09 11:58:02;;;;;;;12.60;8.65;;;11.80;34.70;;;;;;6278392;22;20012;-84
2022/03/09 12:00:28;;;;;;;12.85;9.05;;;11.80;34.00;;;;;;6277579;22;20015;-83
2022/03/09 12:02:56;;;;;;;12.32;8.52;;;11.90;34.50;;;;;;6277933;22;20098;-83
2022/03/09 12:05:24;;;;;;;11.50;9.13;;;11.90;34.70;;;;;;6249937;22;20065;-83
2022/03/09 12:07:54;;;;;;;10.73;8.35;;;12.10;34.30;;;;;;6277245;22;20020;-83
2022/03/09 12:10:22;;;;;;;17.20;9.20;;;12.00;34.40;;;;;;6277522;22;20008;-83
2022/03/09 12:13:17;;;;;;;11.60;8.10;;;12.00;33.80;;;;;;6250387;22;20454;-84
2022/03/09 12:16:01;;;;;;;;;;;12.00;33.80;;;;;;6250683;22;20020;-83
2022/03/09 12:18:38;;;;;;;11.70;8.38;;;12.00;33.90;;;;;;6277662;22;20315;-82
2022/03/09 12:21:05;;;;;;;13.07;8.38;;;12.10;34.50;;;;;;6278104;22;20015;-83
2022/03/09 12:23:32;;;;;;;11.27;8.52;;;12.10;33.70;;;;;;6279508;22;20019;-83
2022/03/09 12:25:58;;;;;;;12.13;8.75;;;12.20;33.80;;;;;;6246465;22;20424;-82
2022/03/09 12:30:51;;;;;;;10.57;8.63;;;12.30;33.50;;;;;;6246665;23;20028;-82
2022/03/09 12:33:34;;;;;;;11.45;8.57;;;12.30;33.50;;;;;;6246627;23;20016;-83
2022/03/09 12:36:12;;;;;;;11.60;8.20;;;12.40;33.30;;;;;;6246739;23;20027;-83
2022/03/09 12:38:42;;;;;;;12.20;8.88;;;12.40;33.20;;;;;;6248312;22;20016;-82
2022/03/09 12:41:27;;;;;;;11.52;8.55;;;12.50;33.50;;;;;;6248394;22;20020;-82
2022/03/09 12:44:01;;;;;;;9.68;7.60;;;12.50;33.20;;;;;;6248683;22;20095;-82
2022/03/09 12:46:28;;;;;;;;;;;12.50;33.50;;;;;;6249056;22;20053;-82
2022/03/09 12:49:12;;;;;;;10.52;8.32;;;12.50;32.70;;;;;;6248612;22;19923;-82
2022/03/09 12:51:47;;;;;;;11.63;8.97;;;12.50;33.40;;;;;;6248309;22;20055;-82